Time;durP1;ratioP1;P1;durP2;ratioP2;P2;SDS_P1;SDS_P2;PMS_P1;PMS_P2;Temp;Humidity;BMP_temperature;BMP_pressure;BME280_temperature;BME280_humidity;BME280_pressure;Samples;Min_cycle;Max_cycle;Signal;HPM_P1;HPM_P2
2022/12/22 03:26:37;;;;;;;1.00;1.00;;;24.70;42.20;;;-142.21;35.22;112049.66;5073109;28;20191;-79
2022/12/22 03:29:05;;;;;;;0.70;0.70;;;24.70;42.20;;;-142.21;35.22;112049.66;5073019;28;20193;-81
2022/12/22 03:31:32;;;;;;;0.97;0.97;;;24.70;42.20;;;-142.21;35.01;112049.66;5072435;28;20233;-83
2022/12/22 03:34:00;;;;;;;1.20;1.10;;;24.70;42.20;;;-142.21;35.17;112049.66;5072898;28;20205;-81
2022/12/22 03:36:28;;;;;;;0.90;0.90;;;24.70;42.20;;;-142.21;35.23;112049.66;5073242;28;20232;-81
2022/12/22 03:38:55;;;;;;;0.90;0.90;;;24.70;42.20;;;-142.21;34.79;112049.66;5072573;28;20736;-81
2022/12/22 03:46:52;;;;;;;1.23;1.17;;;24.70;42.20;;;-142.21;34.95;112049.66;5072326;28;20237;-80
2022/12/22 03:49:21;;;;;;;0.90;0.90;;;24.70;42.20;;;-142.21;34.90;112049.66;5072955;28;20232;-80
2022/12/22 03:51:52;;;;;;;1.20;1.10;;;24.70;42.10;;;-142.21;35.18;112049.66;5072433;28;20205;-80
2022/12/22 03:54:21;;;;;;;0.73;0.73;;;24.70;42.20;;;-142.21;35.11;112049.66;5072674;28;20323;-80
2022/12/22 03:57:01;;;;;;;0.80;0.80;;;24.70;42.20;;;-142.21;34.86;112049.66;5072171;28;20250;-80
2022/12/22 03:59:30;;;;;;;0.90;0.90;;;24.70;42.20;;;-142.21;34.83;112049.66;5073036;28;20653;-80
2022/12/22 04:01:58;;;;;;;1.00;1.00;;;24.70;42.10;;;-142.21;35.14;112049.66;5071759;28;20227;-81
2022/12/22 04:04:27;;;;;;;1.00;0.90;;;24.70;42.20;;;-142.21;34.89;112049.66;5072939;28;20284;-81
2022/12/22 04:06:55;;;;;;;0.93;0.90;;;24.70;42.20;;;-142.21;34.75;112049.66;5071293;28;20295;-81
2022/12/22 04:09:23;;;;;;;0.60;0.60;;;24.70;42.10;;;-142.21;35.02;112049.66;5072320;28;20209;-81
2022/12/22 04:14:35;;;;;;;1.03;0.90;;;24.70;42.10;;;-142.21;35.11;112049.66;5071686;28;20351;-81
2022/12/22 04:17:04;;;;;;;0.80;0.80;;;24.70;42.20;;;-142.21;35.31;112049.66;5072445;28;20631;-80
2022/12/22 04:19:33;;;;;;;0.73;0.73;;;24.70;42.30;;;-142.21;35.25;112049.66;5055241;28;20281;-81
2022/12/22 04:22:00;;;;;;;1.10;0.90;;;24.70;42.20;;;-142.21;34.82;112049.66;5060533;28;20300;-81
2022/12/22 04:24:28;;;;;;;0.60;0.60;;;24.70;42.10;;;-142.21;35.06;112049.66;5072235;28;20230;-81
2022/12/22 04:26:55;;;;;;;0.80;0.80;;;24.70;42.20;;;-142.21;34.96;112049.66;5071093;28;20205;-80
2022/12/22 04:29:22;;;;;;;0.90;0.90;;;24.70;42.10;;;-142.21;35.20;112049.66;5072131;28;20292;-81
2022/12/22 04:31:50;;;;;;;1.10;1.00;;;24.70;42.10;;;-142.21;35.14;112049.66;5071525;28;20293;-81
2022/12/22 04:34:17;;;;;;;0.80;0.80;;;24.70;42.10;;;-142.21;35.29;112049.66;5071756;28;20218;-81
2022/12/22 04:36:46;;;;;;;0.97;0.90;;;24.70;42.10;;;-142.21;34.96;112049.66;5071278;28;20295;-80
2022/12/22 04:39:13;;;;;;;0.97;0.80;;;24.70;42.10;;;-142.21;35.05;112049.66;5072105;28;20287;-81
2022/12/22 04:41:40;;;;;;;0.90;0.90;;;24.70;42.10;;;-142.21;35.00;112049.66;5071031;28;20445;-82
2022/12/22 04:44:08;;;;;;;0.90;0.80;;;24.70;42.20;;;-142.21;35.05;112049.66;5071935;28;20725;-80
2022/12/22 04:46:37;;;;;;;0.60;0.60;;;24.70;42.10;;;-142.21;34.95;112049.66;5071964;28;20303;-81
2022/12/22 04:49:05;;;;;;;0.80;0.80;;;24.70;42.10;;;-142.21;35.06;112049.66;5071661;28;20294;-81
2022/12/22 04:51:32;;;;;;;0.90;0.87;;;24.70;42.10;;;-142.21;35.07;112049.66;5071475;28;20254;-81
2022/12/22 04:54:00;;;;;;;0.73;0.73;;;24.70;42.10;;;-142.21;35.07;112049.66;5071069;28;20211;-82
2022/12/22 04:56:28;;;;;;;0.87;0.87;;;24.70;42.10;;;-142.21;35.22;112049.66;5071870;28;20279;-81
2022/12/22 04:58:55;;;;;;;1.10;0.90;;;24.70;42.10;;;-142.21;35.34;112049.66;5070977;28;20232;-80
2022/12/22 05:01:25;;;;;;;0.77;0.77;;;24.70;42.10;;;-142.21;34.91;112049.66;5071371;28;20248;-79
2022/12/22 05:03:53;;;;;;;0.90;0.80;;;24.70;42.20;;;-142.21;35.26;112049.66;5070215;28;20193;-79
2022/12/22 05:06:20;;;;;;;0.83;0.83;;;24.70;42.20;;;-142.21;35.01;112049.66;5071718;28;20201;-83
2022/12/22 05:08:47;;;;;;;0.90;0.73;;;24.70;42.10;;;-142.21;35.40;112049.66;5070959;28;20620;-82
2022/12/22 05:11:18;;;;;;;0.70;0.70;;;24.70;42.10;;;-142.21;35.11;112049.66;5071251;28;20228;-81
2022/12/22 05:13:45;;;;;;;0.67;0.67;;;24.70;42.80;;;-142.21;35.06;112049.66;5071168;28;20605;-81
2022/12/22 05:16:16;;;;;;;0.70;0.70;;;24.70;42.10;;;-142.21;34.79;112049.66;5071345;28;20878;-81
2022/12/22 05:18:45;;;;;;;0.83;0.80;;;24.70;42.20;;;-142.21;35.09;112049.66;5070559;28;20223;-81
2022/12/22 05:21:15;;;;;;;0.77;0.77;;;24.70;42.30;;;-142.21;35.30;112049.66;5071124;28;20228;-80
2022/12/22 05:23:43;;;;;;;0.70;0.70;;;24.70;42.30;;;-142.21;35.22;112049.66;5063401;28;20657;-81
2022/12/22 05:26:13;;;;;;;0.90;0.90;;;24.70;42.20;;;-142.21;34.99;112049.66;5071715;28;20236;-81
2022/12/22 05:28:42;;;;;;;0.70;0.70;;;24.70;42.20;;;-142.21;35.10;112049.66;5070866;28;20290;-81
2022/12/22 05:31:15;;;;;;;0.70;0.70;;;24.70;42.30;;;-142.21;35.52;112049.66;5071437;28;20217;-82
2022/12/22 05:33:43;;;;;;;0.70;0.70;;;24.60;42.20;;;-142.21;35.00;112049.66;5054214;28;20272;-81
2022/12/22 05:36:10;;;;;;;0.80;0.80;;;24.70;42.20;;;-142.21;35.27;112049.66;5071090;28;20757;-81
2022/12/22 05:38:38;;;;;;;0.60;0.60;;;24.70;42.20;;;-142.21;35.12;112049.66;5074665;28;20679;-81
2022/12/22 05:41:06;;;;;;;0.80;0.80;;;24.70;42.20;;;-142.21;35.31;112049.66;5075813;28;20232;-81
2022/12/22 05:43:34;;;;;;;0.90;0.90;;;24.70;42.30;;;-142.21;35.01;112049.66;5074852;28;20628;-81
2022/12/22 05:46:05;;;;;;;1.00;0.90;;;24.70;42.30;;;-142.21;35.31;112049.66;5074586;28;20208;-81
2022/12/22 05:48:33;;;;;;;0.70;0.70;;;24.60;42.30;;;-142.21;35.31;112049.66;5075127;28;20201;-81
2022/12/22 05:51:00;;;;;;;0.80;0.80;;;24.60;42.20;;;-142.21;35.32;112049.66;5074590;28;20262;-81
2022/12/22 05:53:27;;;;;;;0.83;0.83;;;24.70;42.20;;;-142.21;35.36;112049.66;5074775;28;20232;-82
2022/12/22 05:55:56;;;;;;;1.00;1.00;;;24.60;42.20;;;-142.21;35.26;112049.66;5074364;28;20317;-81
2022/12/22 05:58:24;;;;;;;0.67;0.67;;;24.60;42.10;;;-142.21;35.33;112049.66;5075017;28;20194;-80
2022/12/22 06:00:56;;;;;;;0.70;0.70;;;24.60;42.20;;;-142.21;35.14;112049.66;5074430;28;20259;-82
2022/12/22 06:03:25;;;;;;;0.87;0.77;;;24.60;42.20;;;-142.21;35.06;112049.66;5074146;28;20295;-82
2022/12/22 06:05:53;;;;;;;0.80;0.80;;;24.60;42.20;;;-142.21;35.22;112049.66;5073532;28;20262;-81
2022/12/22 06:08:20;;;;;;;1.03;0.70;;;24.60;42.20;;;-142.21;35.49;112049.66;5074645;28;20239;-80
2022/12/22 06:10:49;;;;;;;0.73;0.70;;;24.60;42.20;;;-142.21;35.28;112049.66;5074276;28;20232;-81
2022/12/22 06:13:17;;;;;;;1.20;0.90;;;24.70;42.20;;;-142.21;35.43;112049.66;5074753;28;20255;-81
2022/12/22 06:15:44;;;;;;;0.80;0.80;;;24.60;42.20;;;-142.21;35.62;112049.66;5073588;28;20267;-81
2022/12/22 06:18:12;;;;;;;0.80;0.80;;;24.60;42.20;;;-142.21;35.27;112049.66;5074937;28;20205;-81
2022/12/22 06:20:41;;;;;;;0.90;0.80;;;24.60;42.20;;;-142.21;35.31;112049.66;5074790;28;20235;-82
2022/12/22 06:23:11;;;;;;;1.20;1.10;;;24.60;42.30;;;-142.21;35.29;112049.66;5074017;28;20204;-81
2022/12/22 06:25:39;;;;;;;1.00;0.90;;;24.60;42.30;;;-142.21;35.29;112049.66;5074385;28;20197;-81
2022/12/22 06:28:06;;;;;;;0.73;0.73;;;24.60;42.20;;;-142.21;35.31;112049.66;5074441;28;20205;-81
2022/12/22 06:30:33;;;;;;;1.63;0.90;;;24.60;42.20;;;-142.21;35.15;112049.66;5074682;28;20235;-81
2022/12/22 06:33:01;;;;;;;0.90;0.90;;;24.60;42.20;;;-142.21;35.49;112049.66;5073691;28;20205;-81
2022/12/22 06:35:28;;;;;;;0.80;0.80;;;24.60;42.20;;;-142.21;35.49;112049.66;5074568;28;20221;-81
2022/12/22 06:37:57;;;;;;;0.90;0.90;;;24.60;42.20;;;-142.21;35.35;112049.66;5073995;28;20207;-81
2022/12/22 06:40:24;;;;;;;0.90;0.90;;;24.60;42.20;;;-142.21;35.34;112049.66;5074424;28;20291;-83
2022/12/22 06:43:08;;;;;;;1.17;1.07;;;24.60;42.30;;;-142.21;35.42;112049.66;5073342;28;20316;-81
2022/12/22 06:45:37;;;;;;;0.77;0.77;;;24.60;42.20;;;-142.21;35.45;112049.66;5074208;28;20189;-78
2022/12/22 06:48:05;;;;;;;1.87;0.70;;;24.60;42.40;;;-142.21;35.31;112049.66;5073092;28;20631;-79
2022/12/22 06:50:32;;;;;;;0.93;0.83;;;24.70;42.40;;;-142.21;35.20;112049.66;5072776;28;20240;-78
2022/12/22 06:53:01;;;;;;;3.37;0.93;;;24.70;42.20;;;-142.21;35.24;112049.66;5073436;28;20193;-79
2022/12/22 06:55:28;;;;;;;1.03;0.93;;;24.80;42.10;;;-142.21;35.29;112049.66;5073564;28;20227;-78
2022/12/22 06:57:56;;;;;;;1.10;1.10;;;24.90;42.00;;;-142.21;35.18;112049.66;5073074;28;20299;-79
2022/12/22 07:00:23;;;;;;;1.27;1.00;;;24.90;41.90;;;-142.21;34.94;112049.66;5073271;28;20256;-79
2022/12/22 07:02:51;;;;;;;0.73;0.70;;;24.90;41.90;;;-142.21;34.95;112049.66;5072593;28;20189;-79
2022/12/22 07:05:18;;;;;;;0.80;0.80;;;25.00;41.70;;;-142.21;35.11;112049.66;5073730;28;20229;-79
2022/12/22 07:07:45;;;;;;;0.80;0.80;;;25.00;41.70;;;-142.21;34.91;112049.66;5073544;28;20197;-79
2022/12/22 07:10:14;;;;;;;0.70;0.70;;;25.10;41.70;;;-142.21;35.12;112049.66;5073644;28;20254;-78
2022/12/22 07:12:42;;;;;;;0.90;0.90;;;25.10;41.60;;;-142.21;34.89;112049.66;5073231;28;20246;-78
2022/12/22 07:15:10;;;;;;;0.90;0.90;;;25.10;41.60;;;-142.21;34.90;112049.66;5072907;28;20275;-81
2022/12/22 07:17:40;;;;;;;1.80;0.90;;;25.10;41.60;;;-142.21;35.23;112049.66;5073072;28;20213;-81
2022/12/22 07:20:12;;;;;;;1.23;1.10;;;25.10;41.80;;;-142.21;35.37;112049.66;5052924;28;20626;-81
2022/12/22 07:22:39;;;;;;;0.93;0.87;;;25.00;41.90;;;-142.21;35.67;112049.66;5062634;28;20201;-81
2022/12/22 07:25:08;;;;;;;1.30;1.13;;;25.00;42.00;;;-142.21;35.68;112049.66;5072918;28;20235;-82
2022/12/22 07:27:36;;;;;;;1.77;1.00;;;24.90;42.10;;;-142.21;35.64;112049.66;5073405;28;20228;-81
2022/12/22 07:30:04;;;;;;;1.47;0.97;;;24.90;42.20;;;-142.21;35.39;112049.66;5072553;28;20212;-81
2022/12/22 07:32:32;;;;;;;2.73;1.23;;;24.90;42.50;;;-142.21;35.93;112049.66;5073160;28;20231;-82
2022/12/22 07:34:59;;;;;;;1.97;1.10;;;24.90;42.60;;;-142.21;35.86;112049.66;5072398;28;20259;-82
2022/12/22 07:37:26;;;;;;;4.67;1.33;;;24.80;42.70;;;-142.21;35.93;112049.66;5073229;28;20231;-82
2022/12/22 07:39:53;;;;;;;3.07;1.10;;;24.80;43.30;;;-142.21;36.13;112049.66;5072871;28;20423;-81
2022/12/22 07:45:09;;;;;;;3.43;1.10;;;24.80;42.90;;;-142.21;36.31;112049.66;5072413;28;20196;-81
2022/12/22 07:47:36;;;;;;;1.53;1.10;;;24.70;43.00;;;-142.21;36.25;112049.66;5073010;28;20232;-81
2022/12/22 07:52:48;;;;;;;1.87;1.30;;;24.80;43.10;;;-142.21;36.10;112049.66;5074373;28;20196;-83
2022/12/22 07:55:16;;;;;;;3.80;1.53;;;24.80;43.20;;;-142.21;36.38;112049.66;5073177;28;20204;-82
2022/12/22 07:57:43;;;;;;;3.20;1.50;;;24.70;43.10;;;-142.21;36.36;112049.66;5073316;28;20231;-83
2022/12/22 08:00:14;;;;;;;2.20;1.43;;;24.80;43.20;;;-142.21;36.26;112049.66;5073284;28;20217;-83
2022/12/22 08:02:50;;;;;;;3.20;1.27;;;24.70;43.30;;;-142.21;36.15;112049.66;5072820;28;20197;-84
2022/12/22 08:05:18;;;;;;;1.77;1.23;;;24.80;43.20;;;-142.21;36.18;112049.66;5072979;28;20640;-84
2022/12/22 08:07:46;;;;;;;3.50;1.80;;;24.70;43.10;;;-142.21;36.15;112049.66;5073459;28;20224;-84
2022/12/22 08:10:13;;;;;;;3.60;1.43;;;24.60;42.90;;;-142.21;36.08;112049.66;5073103;28;20291;-84
2022/12/22 08:12:41;;;;;;;2.13;1.40;;;24.60;43.00;;;-142.21;36.09;112049.66;5072672;28;20291;-84
2022/12/22 08:15:12;;;;;;;3.50;1.50;;;24.60;43.10;;;-142.21;36.15;112049.66;5072369;28;20205;-83
2022/12/22 08:17:39;;;;;;;2.63;1.43;;;24.60;43.20;;;-142.21;36.06;112049.66;5073173;28;20228;-83
2022/12/22 08:20:08;;;;;;;2.90;1.47;;;24.60;43.10;;;-142.21;35.93;112049.66;5072751;28;20577;-85
2022/12/22 08:22:36;;;;;;;4.40;1.70;;;24.60;43.20;;;-142.21;35.95;112049.66;5072890;28;20661;-84
2022/12/22 08:25:04;;;;;;;4.53;1.77;;;24.70;43.10;;;-142.21;36.11;112049.66;5072324;28;20296;-84
2022/12/22 08:27:39;;;;;;;3.27;1.30;;;24.60;43.10;;;-142.21;36.14;112049.66;5071668;28;20208;-83
2022/12/22 08:30:09;;;;;;;3.37;1.47;;;24.70;43.10;;;-142.21;35.82;112049.66;5072475;28;20702;-83
2022/12/22 08:32:40;;;;;;;1.90;1.17;;;24.70;43.10;;;-142.21;36.09;112049.66;5072445;28;20262;-84
2022/12/22 08:35:10;;;;;;;2.10;1.13;;;24.70;43.10;;;-142.21;36.16;112049.66;5072157;28;20209;-83
2022/12/22 08:37:45;;;;;;;1.80;1.50;;;24.70;43.10;;;-142.21;36.01;112049.66;5072505;28;20331;-83
2022/12/22 08:40:18;;;;;;;3.43;1.40;;;24.60;43.00;;;-142.21;35.78;112049.66;5072752;28;20200;-84
2022/12/22 08:42:46;;;;;;;2.33;1.30;;;24.70;43.10;;;-142.21;35.86;112049.66;5072253;28;20213;-84
2022/12/22 08:45:13;;;;;;;2.43;1.37;;;24.70;43.10;;;-142.21;35.88;112049.66;5072617;28;20721;-82
2022/12/22 08:47:42;;;;;;;2.23;1.40;;;24.70;43.00;;;-142.21;35.78;112049.66;5072360;28;20201;-84
2022/12/22 08:50:10;;;;;;;1.77;1.17;;;24.70;43.00;;;-142.21;35.89;112049.66;5071945;28;20701;-83
2022/12/22 08:52:49;;;;;;;3.37;1.40;;;24.70;43.00;;;-142.21;35.77;112049.66;5072041;28;20330;-83
2022/12/22 08:55:17;;;;;;;1.80;1.10;;;24.70;42.90;;;-142.21;36.01;112049.66;5072365;28;20224;-83
2022/12/22 08:58:04;;;;;;;2.00;1.47;;;24.70;42.90;;;-142.21;35.83;112049.66;5071985;28;20250;-83
2022/12/22 09:00:32;;;;;;;2.47;1.10;;;24.70;43.00;;;-142.21;36.00;112049.66;5072083;28;20240;-83
2022/12/22 09:03:00;;;;;;;2.53;1.07;;;24.70;42.90;;;-142.21;36.02;112049.66;5071899;28;20201;-84
2022/12/22 09:05:28;;;;;;;1.80;1.33;;;24.70;42.90;;;-142.21;36.20;112049.66;5072299;28;20204;-83
2022/12/22 09:07:56;;;;;;;2.87;1.37;;;24.70;42.90;;;-142.21;35.77;112049.66;5071971;28;20201;-84
2022/12/22 09:10:23;;;;;;;2.67;1.40;;;24.70;42.90;;;-142.21;35.97;112049.66;5072103;28;20722;-84
2022/12/22 09:12:50;;;;;;;1.93;1.40;;;24.70;42.90;;;-142.21;35.91;112049.66;5071674;28;20259;-84
2022/12/22 09:15:18;;;;;;;2.10;1.30;;;24.70;42.90;;;-142.21;35.66;112049.66;5072289;28;20296;-84
2022/12/22 09:17:45;;;;;;;2.47;1.40;;;24.70;42.90;;;-142.21;35.98;112049.66;5069576;28;20315;-84
2022/12/22 09:20:15;;;;;;;1.83;1.30;;;24.70;42.90;;;-142.21;35.84;112049.66;5051725;28;20547;-83
2022/12/22 09:22:43;;;;;;;1.67;1.10;;;24.70;43.00;;;-142.21;35.89;112049.66;5058326;28;20250;-84
2022/12/22 09:25:10;;;;;;;1.97;1.50;;;24.70;42.90;;;-142.21;35.95;112049.66;5071937;28;20217;-84
2022/12/22 09:27:38;;;;;;;1.97;1.40;;;24.70;43.50;;;-142.21;35.87;112049.66;5072108;28;20661;-83
2022/12/22 09:30:07;;;;;;;2.17;1.57;;;24.70;42.90;;;-142.21;35.93;112049.66;5071369;28;20212;-83
2022/12/22 09:32:34;;;;;;;1.37;1.00;;;24.70;43.70;;;-142.21;35.80;112049.66;5072285;28;20698;-84
2022/12/22 09:35:02;;;;;;;2.50;1.40;;;24.70;42.90;;;-142.21;35.83;112049.66;5071431;28;20208;-84
2022/12/22 09:37:30;;;;;;;2.83;1.53;;;24.70;42.90;;;-142.21;36.02;112049.66;5072064;28;20687;-84
2022/12/22 09:39:58;;;;;;;2.03;1.20;;;24.70;43.00;;;-142.21;35.73;112049.66;5071197;28;20235;-84
2022/12/22 09:42:25;;;;;;;2.43;1.40;;;24.70;42.90;;;-142.21;36.15;112049.66;5071595;28;20257;-84
2022/12/22 09:44:53;;;;;;;1.63;1.13;;;24.70;42.90;;;-142.21;35.72;112049.66;5071327;28;20258;-83
2022/12/22 09:47:28;;;;;;;1.87;1.27;;;24.70;42.90;;;-142.21;36.06;112049.66;5072310;28;20201;-83
2022/12/22 09:49:57;;;;;;;3.07;1.30;;;24.70;43.00;;;-142.21;36.00;112049.66;5071584;28;20287;-84
2022/12/22 09:52:42;;;;;;;1.80;1.00;;;24.70;43.00;;;-142.21;35.99;112049.66;5071676;28;20260;-84
2022/12/22 09:55:27;;;;;;;1.73;1.07;;;24.70;43.10;;;-142.21;35.83;112049.66;5071006;28;20634;-83
2022/12/22 09:57:55;;;;;;;2.33;1.40;;;24.70;43.00;;;-142.21;36.11;112049.66;5071571;28;20592;-83
2022/12/22 10:00:25;;;;;;;1.10;1.00;;;24.70;43.00;;;-142.21;35.77;112049.66;5071439;28;20244;-83
2022/12/22 10:03:07;;;;;;;1.87;1.10;;;24.70;43.00;;;-142.21;35.80;112049.66;5071360;28;20254;-83
2022/12/22 10:05:45;;;;;;;2.40;1.60;;;24.70;43.10;;;-142.21;36.05;112049.66;5071526;28;20177;-83
2022/12/22 10:08:30;;;;;;;1.40;1.10;;;24.70;43.00;;;-142.21;35.72;112049.66;5071185;28;20207;-83
2022/12/22 10:10:57;;;;;;;2.40;1.37;;;24.70;43.00;;;-142.21;35.74;112049.66;5071349;28;20201;-84
2022/12/22 10:13:25;;;;;;;0.93;0.90;;;24.70;43.50;;;-142.21;36.04;112049.66;5071655;28;20607;-84
2022/12/22 10:15:54;;;;;;;1.40;1.07;;;24.70;43.00;;;-142.21;35.72;112049.66;5071121;28;20201;-85
2022/12/22 10:18:25;;;;;;;2.27;1.40;;;24.80;43.00;;;-142.21;35.93;112049.66;5071384;28;20213;-84
2022/12/22 10:21:11;;;;;;;1.63;1.20;;;24.70;43.00;;;-142.21;35.85;112049.66;5071146;28;20205;-84
2022/12/22 10:23:45;;;;;;;1.53;1.20;;;24.70;43.10;;;-142.21;36.00;112049.66;5071645;28;20250;-82
2022/12/22 10:26:20;;;;;;;1.70;1.20;;;24.70;43.00;;;-142.21;35.93;112049.66;5074920;28;20656;-83
2022/12/22 10:28:53;;;;;;;2.10;1.10;;;24.70;42.90;;;-142.21;35.83;112049.66;5075513;28;20246;-84
2022/12/22 10:31:24;;;;;;;1.53;1.20;;;24.80;43.10;;;-142.21;35.84;112049.66;5075287;28;20264;-83
2022/12/22 10:33:55;;;;;;;1.47;1.00;;;24.70;43.00;;;-142.21;36.06;112049.66;5075381;28;20201;-84
2022/12/22 10:36:26;;;;;;;1.90;1.00;;;24.70;43.00;;;-142.21;36.04;112049.66;5074822;28;20248;-83
2022/12/22 10:39:01;;;;;;;1.70;1.20;;;24.70;43.10;;;-142.21;35.87;112049.66;5074472;28;20278;-82
2022/12/22 10:41:32;;;;;;;2.20;1.20;;;24.70;43.10;;;-142.21;36.14;112049.66;5075005;28;20248;-84
2022/12/22 10:44:06;;;;;;;2.17;1.47;;;24.70;43.10;;;-142.21;35.86;112049.66;5074335;28;20201;-84
2022/12/22 10:46:40;;;;;;;1.77;1.10;;;24.70;43.10;;;-142.21;36.14;112049.66;5074793;28;20634;-84
2022/12/22 10:49:20;;;;;;;1.80;1.40;;;24.70;43.10;;;-142.21;35.94;112049.66;5074413;28;20274;-84
2022/12/22 10:51:53;;;;;;;2.23;1.40;;;24.70;43.20;;;-142.21;35.95;112049.66;5074515;28;20565;-84
2022/12/22 10:54:32;;;;;;;1.53;1.27;;;24.70;43.10;;;-142.21;36.04;112049.66;5074625;28;20205;-84
2022/12/22 10:57:20;;;;;;;1.83;1.10;;;24.70;43.20;;;-142.21;35.87;112049.66;5074004;28;20565;-84
2022/12/22 10:59:51;;;;;;;1.70;1.40;;;24.70;43.20;;;-142.21;36.02;112049.66;5074468;28;20224;-84
2022/12/22 11:02:31;;;;;;;1.73;1.13;;;24.70;43.10;;;-142.21;35.88;112049.66;5074488;28;20236;-84
2022/12/22 11:05:06;;;;;;;1.20;0.87;;;24.70;43.20;;;-142.21;36.15;112049.66;5053992;28;20197;-84
2022/12/22 11:07:36;;;;;;;2.17;1.17;;;24.70;43.20;;;-142.21;36.02;112049.66;5054610;28;20288;-83
2022/12/22 11:10:19;;;;;;;2.43;1.80;;;24.70;43.10;;;-142.21;36.17;112049.66;5053720;28;20259;-84
2022/12/22 11:13:30;;;;;;;1.50;1.23;;;24.70;43.20;;;-142.21;35.70;112049.66;5057968;28;20220;-83
2022/12/22 11:16:07;;;;;;;1.47;1.07;;;24.60;43.20;;;-142.21;36.27;112049.66;5073939;28;20204;-84
2022/12/22 11:18:53;;;;;;;2.47;1.07;;;24.70;43.10;;;-142.21;36.21;112049.66;5065547;28;20718;-83
2022/12/22 11:21:31;;;;;;;1.70;1.10;;;24.70;43.20;;;-142.21;36.07;112049.66;5053887;28;20234;-83
2022/12/22 11:24:15;;;;;;;1.47;1.10;;;24.70;43.10;;;-142.21;35.90;112049.66;5066392;28;20591;-84
2022/12/22 11:27:00;;;;;;;1.37;1.10;;;24.60;43.10;;;-142.21;36.07;112049.66;5074315;28;20231;-83
2022/12/22 11:30:03;;;;;;;2.17;1.37;;;24.70;43.30;;;-142.21;35.92;112049.66;5074114;28;20552;-84
2022/12/22 11:33:11;;;;;;;1.50;1.00;;;24.60;43.20;;;-142.21;36.19;112049.66;5073897;28;20204;-83
2022/12/22 11:36:03;;;;;;;1.43;1.13;;;24.60;43.20;;;-142.21;36.20;112049.66;5072814;28;20545;-83
2022/12/22 11:38:48;;;;;;;2.20;1.47;;;24.70;43.30;;;-142.21;36.31;112049.66;5055638;28;20232;-84
2022/12/22 11:41:49;;;;;;;1.63;1.37;;;24.60;43.20;;;-142.21;36.31;112049.66;5073430;28;20255;-85
2022/12/22 11:44:47;;;;;;;2.07;1.20;;;24.60;43.20;;;-142.21;35.92;112049.66;5068263;28;20258;-83
2022/12/22 11:47:33;;;;;;;2.80;1.13;;;24.60;43.30;;;-142.21;36.18;112049.66;5073844;28;20563;-84
2022/12/22 11:50:29;;;;;;;2.33;1.27;;;24.60;43.20;;;-142.21;36.13;112049.66;5072988;28;20633;-84
2022/12/22 11:53:14;;;;;;;1.83;1.00;;;24.60;43.90;;;-142.21;36.10;112049.66;5070429;28;20208;-82
2022/12/22 11:56:19;;;;;;;1.80;1.17;;;24.60;43.30;;;-142.21;36.11;112049.66;5073596;28;20567;-84
2022/12/22 11:59:21;;;;;;;1.30;1.03;;;24.70;43.30;;;-142.21;36.35;112049.66;5073774;28;20201;-82
2022/12/22 12:02:40;;;;;;;1.53;1.10;;;24.70;43.40;;;-142.21;36.10;112049.66;5070080;28;20781;-83
2022/12/22 12:05:43;;;;;;;2.60;1.53;;;24.60;43.30;;;-142.21;36.35;112049.66;5052755;28;20251;-84
2022/12/22 12:08:57;;;;;;;1.00;0.90;;;24.60;43.30;;;-142.21;36.13;112049.66;5036818;28;20254;-84
2022/12/22 12:11:35;;;;;;;2.30;1.50;;;24.60;43.30;;;-142.21;36.03;112049.66;5053411;28;20271;-84
2022/12/22 12:14:22;;;;;;;1.87;1.27;;;24.60;43.30;;;-142.21;36.40;112049.66;5065128;28;20196;-84
2022/12/22 12:16:58;;;;;;;1.73;1.13;;;24.50;43.20;;;-142.21;36.29;112049.66;5073164;28;20274;-83
2022/12/22 12:20:17;;;;;;;1.77;1.10;;;24.60;43.30;;;-142.21;36.17;112049.66;5057209;28;20685;-84
2022/12/22 12:23:18;;;;;;;1.93;1.33;;;24.50;43.20;;;-142.21;36.40;112049.66;5054126;28;20210;-84
2022/12/22 12:26:01;;;;;;;1.30;1.20;;;24.60;43.30;;;-142.21;36.13;112049.66;5072947;28;20281;-84
2022/12/22 12:28:46;;;;;;;2.10;1.13;;;24.60;43.20;;;-142.21;36.20;112049.66;5073026;28;20641;-83
2022/12/22 12:31:19;;;;;;;1.67;1.07;;;24.60;43.30;;;-142.21;36.27;112049.66;5073130;28;20228;-83
2022/12/22 12:33:52;;;;;;;1.37;1.07;;;24.60;43.20;;;-142.21;36.13;112049.66;5072444;28;20193;-83
2022/12/22 12:36:30;;;;;;;1.90;1.30;;;24.60;43.20;;;-142.21;35.95;112049.66;5072255;28;20668;-84
2022/12/22 12:39:12;;;;;;;2.23;1.30;;;24.60;43.20;;;-142.21;36.04;112049.66;5072191;28;20251;-83
2022/12/22 12:41:55;;;;;;;1.40;1.27;;;24.70;43.20;;;-142.21;35.86;112049.66;5072716;28;20254;-83
2022/12/22 12:44:28;;;;;;;1.50;1.00;;;24.60;43.10;;;-142.21;36.08;112049.66;5072603;28;20201;-83
2022/12/22 12:47:23;;;;;;;1.40;1.00;;;24.70;43.20;;;-142.21;36.10;112049.66;5071814;28;20637;-83
2022/12/22 12:50:30;;;;;;;1.63;1.17;;;24.70;43.30;;;-142.21;35.68;112049.66;5072536;28;20216;-83
2022/12/22 12:53:09;;;;;;;1.43;1.10;;;24.70;43.20;;;-142.21;35.58;112049.66;5072491;28;20252;-83
2022/12/22 12:56:20;;;;;;;1.43;1.23;;;24.70;43.20;;;-142.21;35.84;112049.66;5072197;28;20192;-83
2022/12/22 12:58:53;;;;;;;1.63;1.20;;;24.70;43.20;;;-142.21;35.93;112049.66;5072280;28;20297;-83
2022/12/22 13:01:59;;;;;;;1.10;1.00;;;24.80;43.20;;;-142.21;35.66;112049.66;5071998;28;20236;-83
2022/12/22 13:05:26;;;;;;;2.07;1.30;;;24.70;43.20;;;-142.21;35.99;112049.66;5072282;28;20261;-83
2022/12/22 13:08:24;;;;;;;2.40;1.50;;;24.70;43.40;;;-142.21;35.70;112049.66;5010827;28;20265;-84
2022/12/22 13:11:34;;;;;;;1.30;1.20;;;24.80;43.50;;;-142.21;35.65;112049.66;4991083;28;20669;-84
2022/12/22 13:14:02;;;;;;;2.57;1.60;;;24.80;43.40;;;-142.21;35.62;112049.66;4987079;28;20266;-84
2022/12/22 13:16:39;;;;;;;1.97;1.20;;;24.80;43.10;;;-142.21;35.71;112049.66;4991007;28;20211;-85
2022/12/22 13:19:25;;;;;;;1.63;1.37;;;24.80;43.40;;;-142.21;35.52;112049.66;4991970;28;20196;-82
2022/12/22 13:21:56;;;;;;;1.80;1.20;;;24.80;43.40;;;-142.21;35.82;112049.66;4988299;28;20203;-81
2022/12/22 13:24:43;;;;;;;2.53;1.47;;;24.90;43.30;;;-142.21;35.93;112049.66;5010141;28;20285;-82
2022/12/22 13:27:12;;;;;;;2.90;1.40;;;24.90;43.50;;;-142.21;35.72;112049.66;5009010;28;20218;-82
2022/12/22 13:29:47;;;;;;;4.37;2.10;;;24.90;43.40;;;-142.21;35.75;112049.66;5010545;28;20273;-83
2022/12/22 13:32:27;;;;;;;3.20;2.03;;;24.90;43.50;;;-142.21;36.36;112049.66;5009685;28;20206;-84
2022/12/22 13:35:17;;;;;;;2.77;1.53;;;24.90;44.20;;;-142.21;36.15;112049.66;5010141;28;20226;-82
2022/12/22 13:37:49;;;;;;;3.20;1.40;;;24.90;44.00;;;-142.21;36.05;112049.66;4993437;28;20729;-82
2022/12/22 13:40:22;;;;;;;3.23;1.70;;;24.80;43.80;;;-142.21;35.84;112049.66;5009403;28;20255;-83
2022/12/22 13:42:53;;;;;;;2.20;1.60;;;24.90;43.80;;;-142.21;36.03;112049.66;5009984;28;20230;-83
2022/12/22 13:45:34;;;;;;;2.90;1.80;;;24.90;43.80;;;-142.21;36.35;112049.66;5045717;28;20895;-82
2022/12/22 13:48:12;;;;;;;1.97;1.50;;;24.90;44.10;;;-142.21;35.79;112049.66;5071064;28;20846;-83
2022/12/22 13:50:45;;;;;;;3.47;1.60;;;24.90;43.90;;;-142.21;35.84;112049.66;5071558;28;20205;-81
2022/12/22 13:53:20;;;;;;;1.87;1.40;;;24.90;43.80;;;-142.21;35.90;112049.66;5071143;28;20201;-83
2022/12/22 13:55:51;;;;;;;2.57;1.90;;;24.90;43.80;;;-142.21;35.74;112049.66;5072069;28;20325;-83
2022/12/22 13:58:27;;;;;;;3.30;1.83;;;24.90;43.60;;;-142.21;35.72;112049.66;5071464;28;20248;-82
2022/12/22 14:01:04;;;;;;;2.27;1.50;;;24.90;43.60;;;-142.21;35.88;112049.66;5074961;28;20228;-81
2022/12/22 14:03:32;;;;;;;2.70;1.30;;;24.90;43.50;;;-142.21;35.81;112049.66;5074952;28;20710;-81
2022/12/22 14:05:59;;;;;;;2.43;1.67;;;25.00;43.40;;;-142.21;35.75;112049.66;5074975;28;20300;-83
2022/12/22 14:08:26;;;;;;;2.47;1.43;;;25.00;43.40;;;-142.21;35.92;112049.66;5075191;28;20204;-83